createdAt,value
2022-11-01T00:02:13.617Z,55.76
2022-11-01T00:04:47.230Z,55.55
2022-11-01T00:07:14.897Z,55.44
2022-11-01T00:09:42.872Z,55.35
2022-11-01T00:12:12.676Z,55.47
2022-11-01T00:14:40.279Z,55.37
2022-11-01T00:17:09.064Z,55.24
2022-11-01T00:19:36.602Z,55.46
2022-11-01T00:22:04.422Z,55.40
2022-11-01T00:24:33.892Z,55.47
2022-11-01T00:27:01.819Z,55.48
2022-11-01T00:29:35.511Z,55.67
2022-11-01T00:32:02.878Z,55.81
2022-11-01T00:34:30.326Z,55.80
2022-11-01T00:36:57.532Z,55.88
2022-11-01T00:39:30.636Z,55.82
2022-11-01T00:41:58.867Z,55.84
2022-11-01T00:44:26.149Z,55.90
2022-11-01T00:46:53.441Z,55.96
2022-11-01T00:49:21.180Z,55.92
2022-11-01T00:51:48.265Z,56.20
2022-11-01T00:54:16.858Z,56.03
2022-11-01T00:56:43.837Z,56.01
2022-11-01T00:59:10.988Z,56.10
2022-11-01T01:01:38.853Z,56.33
2022-11-01T01:04:09.148Z,56.45
2022-11-01T01:06:36.435Z,56.82
2022-11-01T01:09:04.354Z,56.63
2022-11-01T01:11:31.603Z,56.74
2022-11-01T01:13:58.736Z,56.78
2022-11-01T01:16:25.969Z,56.84
2022-11-01T01:18:53.370Z,56.82
2022-11-01T01:21:25.108Z,57.05
2022-11-01T01:23:58.651Z,56.91
2022-11-01T01:26:25.756Z,56.79
2022-11-01T01:28:56.198Z,56.81
2022-11-01T01:31:23.386Z,57.08
2022-11-01T01:33:50.187Z,57.15
2022-11-01T01:36:16.958Z,57.33
2022-11-01T01:38:44.128Z,57.44
2022-11-01T01:41:29.640Z,57.52
2022-11-01T01:43:56.408Z,57.73
2022-11-01T01:46:23.178Z,57.89
2022-11-01T01:48:55.037Z,57.76
2022-11-01T01:51:26.495Z,57.91
2022-11-01T01:53:55.244Z,58.06
2022-11-01T01:56:33.230Z,58.38
2022-11-01T01:59:07.861Z,58.40
2022-11-01T02:01:37.770Z,58.32
2022-11-01T02:04:10.604Z,58.49
2022-11-01T02:06:39.466Z,58.60
2022-11-01T02:09:08.774Z,58.41
2022-11-01T02:11:36.363Z,58.34
2022-11-01T02:14:04.005Z,58.32
2022-11-01T02:16:33.714Z,58.41
2022-11-01T02:19:24.861Z,58.59
2022-11-01T02:22:00.992Z,58.72
2022-11-01T02:24:33.777Z,58.63
2022-11-01T02:27:11.331Z,58.56
2022-11-01T02:30:05.909Z,58.76
2022-11-01T02:32:42.700Z,58.58
2022-11-01T02:35:36.468Z,58.63
2022-11-01T02:38:19.308Z,58.75
2022-11-01T02:40:58.117Z,58.67
2022-11-01T02:43:35.234Z,58.66
2022-11-01T02:46:25.761Z,58.90
2022-11-01T02:48:53.516Z,58.82
2022-11-01T02:51:22.514Z,58.88
2022-11-01T02:53:49.225Z,58.85
2022-11-01T02:56:17.659Z,58.93
2022-11-01T02:58:46.921Z,59.02
2022-11-01T03:01:21.564Z,58.92
2022-11-01T03:03:52.151Z,58.80
2022-11-01T03:06:42.569Z,59.33
2022-11-01T03:09:12.022Z,59.26
2022-11-01T03:11:55.276Z,59.11
2022-11-01T03:14:34.048Z,59.38
2022-11-01T03:17:19.567Z,59.92
2022-11-01T03:19:56.716Z,60.27
2022-11-01T03:22:37.405Z,60.51
2022-11-01T03:25:27.352Z,60.69
2022-11-01T03:28:01.363Z,60.31
2022-11-01T03:30:31.556Z,60.38
2022-11-01T03:32:58.767Z,60.06
2022-11-01T03:35:30.776Z,60.02
2022-11-01T03:38:04.682Z,59.91
2022-11-01T03:40:34.406Z,60.21
2022-11-01T03:43:05.206Z,59.99
2022-11-01T03:45:35.440Z,60.22
2022-11-01T03:48:02.828Z,60.29
2022-11-01T03:50:29.982Z,61.73
2022-11-01T03:52:57.209Z,62.50
2022-11-01T03:55:24.988Z,62.96
2022-11-01T03:57:54.468Z,63.09
2022-11-01T04:00:25.854Z,63.41
2022-11-01T04:02:54.206Z,63.24
2022-11-01T04:05:22.766Z,63.57
2022-11-01T04:07:51.447Z,63.35
2022-11-01T04:10:19.580Z,63.04
2022-11-01T04:12:48.425Z,63.24
2022-11-01T04:15:35.199Z,63.27
2022-11-01T04:18:42.749Z,63.75
2022-11-01T04:21:12.380Z,63.18
2022-11-01T04:23:39.480Z,63.08
2022-11-01T04:26:07.626Z,62.92
2022-11-01T04:28:34.512Z,62.93
2022-11-01T04:31:01.332Z,63.04
2022-11-01T04:33:28.071Z,62.74
2022-11-01T04:35:54.843Z,62.73
2022-11-01T04:38:21.820Z,62.59
2022-11-01T04:40:49.212Z,62.32
2022-11-01T04:43:16.019Z,62.11
2022-11-01T04:45:42.836Z,62.05
2022-11-01T04:48:13.679Z,61.97
2022-11-01T04:50:40.767Z,61.88
2022-11-01T04:53:08.480Z,61.50
2022-11-01T04:55:35.402Z,61.48
2022-11-01T04:58:02.191Z,61.40
2022-11-01T05:00:28.933Z,61.16
2022-11-01T05:03:07.043Z,61.10
2022-11-01T05:05:35.176Z,61.16
2022-11-01T05:08:04.717Z,61.12
2022-11-01T05:10:32.988Z,61.15
2022-11-01T05:13:00.733Z,60.83
2022-11-01T05:15:27.940Z,60.96
2022-11-01T05:17:54.687Z,60.94
2022-11-01T05:20:21.527Z,60.71
2022-11-01T05:22:49.113Z,60.99
2022-11-01T05:25:18.021Z,60.92
2022-11-01T05:27:44.781Z,60.68
2022-11-01T05:30:12.196Z,60.88
2022-11-01T05:32:39.011Z,60.84
2022-11-01T05:35:06.383Z,60.75
2022-11-01T05:37:33.277Z,60.92
2022-11-01T05:39:59.997Z,61.11
2022-11-01T05:42:27.001Z,61.10
2022-11-01T05:44:53.726Z,61.24
2022-11-01T05:47:20.458Z,61.04
2022-11-01T05:49:47.157Z,61.40
2022-11-01T05:52:13.899Z,61.46
2022-11-01T05:54:40.627Z,61.43
2022-11-01T05:57:07.389Z,61.40
2022-11-01T05:59:34.338Z,61.51
2022-11-01T06:02:01.163Z,61.46
2022-11-01T06:04:28.014Z,61.32
2022-11-01T06:06:54.754Z,61.35
2022-11-01T06:09:21.511Z,61.54
2022-11-01T06:12:04.556Z,61.62
2022-11-01T06:14:31.314Z,61.47
2022-11-01T06:16:58.096Z,61.42
2022-11-01T06:19:24.836Z,61.59
2022-11-01T06:21:51.739Z,61.44
2022-11-01T06:24:18.460Z,61.33
2022-11-01T06:26:45.279Z,61.43
2022-11-01T06:29:11.969Z,61.42
2022-11-01T06:31:39.380Z,61.38
2022-11-01T06:34:06.093Z,61.47
2022-11-01T06:36:32.853Z,61.33
2022-11-01T06:38:59.644Z,61.39
2022-11-01T06:41:26.433Z,61.49
2022-11-01T06:43:53.220Z,61.48
2022-11-01T06:46:20.068Z,61.50
2022-11-01T06:48:49.918Z,61.47
2022-11-01T06:51:16.864Z,61.43
2022-11-01T06:53:43.656Z,61.29
2022-11-01T06:56:10.409Z,61.36
2022-11-01T06:58:37.125Z,61.34
2022-11-01T07:01:04.218Z,61.45
2022-11-01T07:03:30.995Z,61.35
2022-11-01T07:06:00.797Z,61.60
2022-11-01T07:08:27.544Z,61.79
2022-11-01T07:10:54.348Z,61.64
2022-11-01T07:13:21.321Z,61.74
2022-11-01T07:15:48.262Z,61.84
2022-11-01T07:18:15.029Z,61.78
2022-11-01T07:20:42.232Z,61.61
2022-11-01T07:23:15.651Z,61.88
2022-11-01T07:25:43.228Z,61.72
2022-11-01T07:28:10.596Z,61.55
2022-11-01T07:30:37.539Z,61.44
2022-11-01T07:33:05.538Z,61.64
2022-11-01T07:35:32.915Z,61.44
2022-11-01T07:38:02.758Z,61.38
2022-11-01T07:40:32.119Z,61.49
2022-11-01T07:43:00.392Z,61.65
2022-11-01T07:45:29.587Z,61.59
2022-11-01T07:48:02.876Z,61.58
2022-11-01T07:50:31.519Z,61.62
2022-11-01T07:53:01.290Z,61.74
2022-11-01T07:55:46.845Z,61.95
2022-11-01T07:58:15.126Z,61.70
2022-11-01T08:00:42.849Z,61.90
2022-11-01T08:03:17.667Z,61.99
2022-11-01T08:05:45.711Z,61.90
2022-11-01T08:08:13.033Z,62.09
2022-11-01T08:10:40.635Z,62.08
2022-11-01T08:13:24.862Z,62.23
2022-11-01T08:15:53.388Z,62.28
2022-11-01T08:18:22.705Z,62.32
2022-11-01T08:20:49.731Z,62.35
2022-11-01T08:23:16.972Z,62.10
2022-11-01T08:25:44.786Z,62.14
2022-11-01T08:28:17.570Z,62.36
2022-11-01T08:30:46.386Z,62.21
2022-11-01T08:33:13.274Z,62.23
2022-11-01T08:35:40.092Z,62.32
2022-11-01T08:38:06.970Z,62.30
2022-11-01T08:40:34.184Z,62.35
2022-11-01T08:43:01.600Z,62.54
2022-11-01T08:45:28.856Z,62.64
2022-11-01T08:48:00.426Z,62.87
2022-11-01T08:50:28.269Z,62.72
2022-11-01T08:52:55.286Z,62.90
2022-11-01T08:55:23.027Z,63.43
2022-11-01T08:57:50.534Z,63.15
2022-11-01T09:00:17.964Z,63.12
2022-11-01T09:02:44.899Z,63.01
2022-11-01T09:05:11.685Z,63.06
2022-11-01T09:07:39.197Z,63.13
2022-11-01T09:10:06.878Z,63.25
2022-11-01T09:12:34.212Z,63.55
2022-11-01T09:15:00.988Z,63.27
2022-11-01T09:17:28.190Z,63.29
2022-11-01T09:19:55.172Z,63.58
2022-11-01T09:22:22.889Z,63.42
2022-11-01T09:24:49.684Z,63.42
2022-11-01T09:27:16.474Z,63.78
2022-11-01T09:29:45.358Z,63.95
2022-11-01T09:32:15.082Z,63.98
2022-11-01T09:34:41.794Z,64.39
2022-11-01T09:37:08.521Z,64.26
2022-11-01T09:39:35.245Z,64.18
2022-11-01T09:42:05.976Z,64.25
2022-11-01T09:44:39.209Z,64.33
2022-11-01T09:47:16.665Z,64.68
2022-11-01T09:49:47.281Z,64.67
2022-11-01T09:52:23.326Z,64.82
2022-11-01T09:54:50.372Z,64.49
2022-11-01T09:57:26.743Z,64.92
2022-11-01T10:00:01.535Z,65.04
2022-11-01T10:03:05.038Z,65.39
2022-11-01T10:05:48.568Z,65.41
2022-11-01T10:08:27.320Z,65.63
2022-11-01T10:11:00.360Z,65.68
2022-11-01T10:14:06.125Z,66.10
2022-11-01T10:16:37.820Z,65.74
2022-11-01T10:19:26.950Z,66.27
2022-11-01T10:22:03.297Z,65.83
2022-11-01T10:24:41.914Z,65.77
2022-11-01T10:27:43.056Z,65.93
2022-11-01T10:30:16.105Z,66.04
2022-11-01T10:33:06.587Z,65.94
2022-11-01T10:35:41.835Z,65.88
2022-11-01T10:38:35.148Z,66.28
2022-11-01T10:41:30.050Z,65.78
2022-11-01T10:44:01.187Z,65.81
2022-11-01T10:46:32.307Z,66.13
2022-11-01T10:49:03.444Z,66.02
2022-11-01T10:51:33.737Z,65.90
2022-11-01T10:54:06.116Z,66.11
2022-11-01T10:56:44.747Z,65.94
2022-11-01T10:59:27.469Z,66.09
2022-11-01T11:01:56.142Z,66.05
2022-11-01T11:04:25.063Z,66.17
2022-11-01T11:06:52.532Z,66.09
2022-11-01T11:09:28.292Z,66.07
2022-11-01T11:12:18.582Z,66.29
2022-11-01T11:14:53.309Z,66.25
2022-11-01T11:17:26.534Z,66.58
2022-11-01T11:19:53.737Z,66.56
2022-11-01T11:22:22.994Z,66.58
2022-11-01T11:24:52.851Z,66.64
2022-11-01T11:27:26.128Z,66.74
2022-11-01T11:29:57.798Z,67.13
2022-11-01T11:32:30.782Z,67.32
2022-11-01T11:35:05.645Z,66.92
2022-11-01T11:37:35.084Z,67.06
2022-11-01T11:40:22.407Z,67.34
2022-11-01T11:42:50.346Z,67.37
2022-11-01T11:45:24.125Z,67.42
2022-11-01T11:47:51.400Z,67.36
2022-11-01T11:50:21.167Z,67.61
2022-11-01T11:52:50.318Z,67.08
2022-11-01T11:55:36.673Z,67.46
2022-11-01T11:58:06.161Z,66.97
2022-11-01T12:00:37.742Z,67.06
2022-11-01T12:03:06.845Z,66.69
2022-11-01T12:05:34.952Z,66.83
2022-11-01T12:08:01.825Z,66.49
2022-11-01T12:10:35.976Z,66.54
2022-11-01T12:13:18.196Z,66.43
2022-11-01T12:15:44.951Z,66.41
2022-11-01T12:18:18.890Z,65.92
2022-11-01T12:20:50.926Z,65.77
2022-11-01T12:23:26.927Z,65.97
2022-11-01T12:25:55.410Z,66.48
2022-11-01T12:28:46.851Z,66.31
2022-11-01T12:31:18.143Z,66.07
2022-11-01T12:34:06.808Z,66.47
2022-11-01T12:36:44.296Z,65.84
2022-11-01T12:39:32.315Z,66.07
2022-11-01T12:42:04.021Z,66.31
2022-11-01T12:44:35.923Z,66.15
2022-11-01T12:47:05.584Z,66.22
2022-11-01T12:49:47.283Z,66.08
2022-11-01T12:52:27.219Z,66.01
2022-11-01T12:55:33.129Z,66.20
2022-11-01T12:58:00.073Z,65.92
2022-11-01T13:01:09.753Z,65.82
2022-11-01T13:04:15.136Z,66.27
2022-11-01T13:07:12.809Z,66.33
2022-11-01T13:09:45.345Z,66.19
2022-11-01T13:12:36.456Z,66.39
2022-11-01T13:15:25.573Z,66.30
2022-11-01T13:18:29.308Z,66.38
2022-11-01T13:20:59.195Z,66.81
2022-11-01T13:23:35.876Z,66.32
2022-11-01T13:26:42.808Z,67.13
2022-11-01T13:29:17.743Z,66.89
2022-11-01T13:32:02.135Z,67.09
2022-11-01T13:34:52.241Z,67.24
2022-11-01T13:37:32.840Z,66.99
2022-11-01T13:40:20.685Z,66.97
2022-11-01T13:42:59.518Z,66.82
2022-11-01T13:45:26.501Z,66.75
2022-11-01T13:48:02.486Z,67.08
2022-11-01T13:50:38.838Z,67.07
2022-11-01T13:53:25.813Z,66.63
2022-11-01T13:56:10.696Z,66.92
2022-11-01T13:58:41.312Z,66.90
2022-11-01T14:01:27.016Z,66.85
2022-11-01T14:04:15.051Z,66.89
2022-11-01T14:06:43.528Z,66.87
2022-11-01T14:09:30.422Z,66.93
2022-11-01T14:12:10.193Z,66.80
2022-11-01T14:14:38.769Z,66.80
2022-11-01T14:17:20.631Z,67.12
2022-11-01T14:19:48.657Z,67.02
2022-11-01T14:22:33.679Z,67.23
2022-11-01T14:25:02.842Z,66.69
2022-11-01T14:27:32.483Z,66.95
2022-11-01T14:29:59.363Z,66.96
2022-11-01T14:32:29.082Z,66.73
2022-11-01T14:35:00.102Z,66.66
2022-11-01T14:37:33.612Z,66.70
2022-11-01T14:40:29.464Z,66.67
2022-11-01T14:43:04.081Z,66.52
2022-11-01T14:45:44.670Z,66.43
2022-11-01T14:48:57.877Z,66.20
2022-11-01T14:51:41.543Z,66.17
2022-11-01T14:54:20.361Z,66.00
2022-11-01T14:56:52.985Z,66.10
2022-11-01T14:59:20.904Z,66.08
2022-11-01T15:01:51.016Z,66.09
2022-11-01T15:04:27.420Z,66.29
2022-11-01T15:06:54.276Z,66.04
2022-11-01T15:09:24.147Z,65.96
2022-11-01T15:11:54.118Z,66.15
2022-11-01T15:14:25.034Z,66.19
2022-11-01T15:16:52.201Z,66.22
2022-11-01T15:19:27.978Z,66.38
2022-11-01T15:22:01.127Z,66.26
2022-11-01T15:24:27.997Z,66.28
2022-11-01T15:26:54.862Z,66.40
2022-11-01T15:29:24.902Z,66.30
2022-11-01T15:31:59.361Z,66.42
2022-11-01T15:34:30.781Z,66.67
2022-11-01T15:37:01.224Z,66.66
2022-11-01T15:39:32.043Z,66.72
2022-11-01T15:41:58.905Z,66.82
2022-11-01T15:44:28.851Z,66.76
2022-11-01T15:46:59.423Z,66.67
2022-11-01T15:49:32.135Z,66.66
2022-11-01T15:52:03.015Z,66.41
2022-11-01T15:54:32.619Z,66.65
2022-11-01T15:57:04.545Z,66.55
2022-11-01T16:00:05.612Z,66.77
2022-11-01T16:02:45.148Z,66.83
2022-11-01T16:05:23.354Z,66.96
2022-11-01T16:07:50.704Z,66.98
2022-11-01T16:10:22.536Z,67.37
2022-11-01T16:12:50.378Z,67.28
2022-11-01T16:15:22.687Z,67.53
2022-11-01T16:17:49.770Z,67.67
2022-11-01T16:20:34.281Z,68.14
2022-11-01T16:23:14.663Z,68.25
2022-11-01T16:25:41.428Z,68.17
2022-11-01T16:28:10.860Z,68.33
2022-11-01T16:30:48.373Z,68.30
2022-11-01T16:33:23.463Z,68.45
2022-11-01T16:35:54.052Z,68.52
2022-11-01T16:38:43.418Z,69.22
2022-11-01T16:41:22.178Z,69.22
2022-11-01T16:43:53.961Z,68.81
2022-11-01T16:46:24.282Z,68.80
2022-11-01T16:48:57.123Z,68.80
2022-11-01T16:51:28.800Z,68.99
2022-11-01T16:54:00.507Z,69.20
2022-11-01T16:56:36.719Z,69.12
2022-11-01T16:59:27.208Z,69.43
2022-11-01T17:01:58.190Z,69.23
2022-11-01T17:04:27.022Z,69.20
2022-11-01T17:06:55.348Z,69.07
2022-11-01T17:09:25.236Z,69.16
2022-11-01T17:11:53.921Z,69.26
2022-11-01T17:14:22.081Z,68.97
2022-11-01T17:16:51.028Z,69.02
2022-11-01T17:19:22.900Z,68.86
2022-11-01T17:21:51.198Z,68.78
2022-11-01T17:24:22.610Z,68.84
2022-11-01T17:26:50.606Z,68.59
2022-11-01T17:29:17.359Z,68.66
2022-11-01T17:31:44.178Z,68.80
2022-11-01T17:34:10.971Z,68.75
2022-11-01T17:36:39.925Z,68.69
2022-11-01T17:39:10.110Z,68.91
2022-11-01T17:41:36.951Z,69.11
2022-11-01T17:44:03.754Z,69.24
2022-11-01T17:46:30.475Z,69.24
2022-11-01T17:48:57.188Z,69.17
2022-11-01T17:51:24.018Z,69.31
2022-11-01T17:53:57.673Z,69.38
2022-11-01T17:56:25.413Z,69.39
2022-11-01T17:58:53.780Z,69.22
2022-11-01T18:01:21.784Z,69.29
2022-11-01T18:03:48.980Z,69.29
2022-11-01T18:06:16.307Z,69.32
2022-11-01T18:08:46.654Z,69.25
2022-11-01T18:11:13.325Z,69.38
2022-11-01T18:13:58.479Z,69.61
2022-11-01T18:16:32.873Z,69.49
2022-11-01T18:19:13.784Z,69.27
2022-11-01T18:21:43.354Z,69.25
2022-11-01T18:24:21.267Z,68.95
2022-11-01T18:26:49.263Z,68.78
2022-11-01T18:29:21.699Z,68.67
2022-11-01T18:32:09.546Z,68.73
2022-11-01T18:34:49.259Z,68.58
2022-11-01T18:37:26.504Z,68.42
2022-11-01T18:40:02.576Z,67.81
2022-11-01T18:42:30.318Z,67.39
2022-11-01T18:45:16.017Z,66.98
2022-11-01T18:47:49.663Z,66.99
2022-11-01T18:50:23.609Z,66.46
2022-11-01T18:53:06.871Z,66.60
2022-11-01T18:55:33.939Z,66.19
2022-11-01T18:58:27.622Z,66.14
2022-11-01T19:01:13.567Z,66.33
2022-11-01T19:03:41.265Z,66.21
2022-11-01T19:06:16.639Z,66.28
2022-11-01T19:08:47.224Z,65.85
2022-11-01T19:11:14.051Z,65.73
2022-11-01T19:13:41.743Z,65.82
2022-11-01T19:16:11.613Z,66.03
2022-11-01T19:18:42.277Z,65.94
2022-11-01T19:21:19.159Z,65.93
2022-11-01T19:23:51.801Z,65.82
2022-11-01T19:26:25.850Z,65.92
2022-11-01T19:28:53.153Z,65.92
2022-11-01T19:31:39.163Z,66.06
2022-11-01T19:34:16.608Z,66.40
2022-11-01T19:36:44.672Z,66.48
2022-11-01T19:39:31.271Z,66.56
2022-11-01T19:42:13.968Z,66.73
2022-11-01T19:44:40.880Z,66.64
2022-11-01T19:47:30.219Z,66.57
2022-11-01T19:49:56.982Z,66.78
2022-11-01T19:52:37.226Z,66.84
2022-11-01T19:55:36.175Z,67.01
2022-11-01T19:58:22.626Z,66.98
2022-11-01T20:00:49.911Z,67.19
2022-11-01T20:03:26.716Z,67.33
2022-11-01T20:05:54.666Z,67.29
2022-11-01T20:08:25.865Z,67.32
2022-11-01T20:10:52.619Z,67.43
2022-11-01T20:13:19.697Z,67.41
2022-11-01T20:15:47.179Z,67.28
2022-11-01T20:18:13.948Z,67.30
2022-11-01T20:20:44.019Z,67.28
2022-11-01T20:23:27.495Z,67.54
2022-11-01T20:25:55.253Z,67.90
2022-11-01T20:28:22.176Z,67.91
2022-11-01T20:30:48.890Z,67.83
2022-11-01T20:33:16.322Z,67.82
2022-11-01T20:35:43.495Z,68.32
2022-11-01T20:38:10.323Z,68.50
2022-11-01T20:40:37.161Z,68.46
2022-11-01T20:43:04.666Z,68.63
2022-11-01T20:45:31.797Z,68.70
2022-11-01T20:47:58.540Z,69.28
2022-11-01T20:50:25.386Z,69.41
2022-11-01T20:52:52.528Z,69.70
2022-11-01T20:55:20.007Z,69.86
2022-11-01T20:57:47.371Z,69.64
2022-11-01T21:00:15.965Z,69.74
2022-11-01T21:02:43.318Z,69.76
2022-11-01T21:05:28.672Z,70.71
2022-11-01T21:08:25.404Z,71.85
2022-11-01T21:11:18.186Z,71.88
2022-11-01T21:13:45.815Z,71.77
2022-11-01T21:16:30.641Z,72.29
2022-11-01T21:19:02.245Z,72.20
2022-11-01T21:21:32.533Z,71.88
2022-11-01T21:24:00.997Z,71.99
2022-11-01T21:26:33.940Z,71.99
2022-11-01T21:29:14.618Z,72.16
2022-11-01T21:31:42.590Z,71.73
2022-11-01T21:34:10.166Z,71.85
2022-11-01T21:36:42.233Z,72.26
2022-11-01T21:39:19.305Z,72.33
2022-11-01T21:41:51.354Z,71.82
2022-11-01T21:44:28.673Z,72.12
2022-11-01T21:47:08.622Z,71.88
2022-11-01T21:49:36.677Z,71.86
2022-11-01T21:52:06.399Z,71.73
2022-11-01T21:54:35.814Z,71.63
2022-11-01T21:57:04.568Z,71.76
2022-11-01T21:59:31.549Z,71.73
2022-11-01T22:02:01.366Z,71.37
2022-11-01T22:04:32.715Z,71.32
2022-11-01T22:07:01.898Z,71.21
2022-11-01T22:09:29.274Z,71.05
2022-11-01T22:11:56.328Z,71.10
2022-11-01T22:14:24.043Z,70.87
2022-11-01T22:16:50.896Z,70.77
2022-11-01T22:19:17.809Z,70.75
2022-11-01T22:24:16.265Z,70.33
2022-11-01T22:26:42.931Z,70.43
2022-11-01T22:29:09.702Z,70.35
2022-11-01T22:31:36.528Z,70.43
2022-11-01T22:34:03.364Z,70.48
2022-11-01T22:36:34.694Z,70.29
2022-11-01T22:39:06.760Z,69.96
2022-11-01T22:41:35.595Z,69.83
2022-11-01T22:44:10.379Z,69.87
2022-11-01T22:46:55.068Z,69.86
2022-11-01T22:49:42.016Z,69.90
2022-11-01T22:52:30.250Z,69.89
2022-11-01T22:55:36.164Z,69.83
2022-11-01T22:58:16.817Z,69.57
2022-11-01T23:00:46.358Z,69.54
2022-11-01T23:03:28.882Z,69.46
2022-11-01T23:05:58.930Z,69.29
2022-11-01T23:08:37.247Z,69.25
2022-11-01T23:11:05.299Z,69.84
2022-11-01T23:13:53.382Z,69.40
2022-11-01T23:16:30.227Z,69.70
2022-11-01T23:18:59.471Z,69.61
2022-11-01T23:21:27.653Z,69.33
2022-11-01T23:23:54.937Z,69.41
2022-11-01T23:26:23.598Z,69.18
2022-11-01T23:28:52.969Z,68.89
2022-11-01T23:31:21.088Z,68.74
2022-11-01T23:33:50.019Z,68.44
2022-11-01T23:36:29.083Z,68.52
2022-11-01T23:41:41.612Z,68.35
2022-11-01T23:44:30.932Z,68.07
2022-11-01T23:47:12.929Z,67.07
2022-11-01T23:49:39.824Z,67.65
2022-11-01T23:52:26.761Z,67.39
2022-11-01T23:54:53.631Z,67.04
2022-11-01T23:57:21.730Z,66.87
2022-11-01T23:59:51.003Z,66.41
